sensor_id;sensor_type;location;lat;lon;timestamp;temperature;humidity
5940;DHT22;2995;-31.998;115.906;2022-10-26T00:01:27;19.40;99.90
5940;DHT22;2995;-31.998;115.906;2022-10-26T00:03:59;19.60;99.90
5940;DHT22;2995;-31.998;115.906;2022-10-26T00:06:30;19.50;99.90
5940;DHT22;2995;-31.998;115.906;2022-10-26T00:09:01;20.10;99.90
5940;DHT22;2995;-31.998;115.906;2022-10-26T00:11:32;20.90;99.90
5940;DHT22;2995;-31.998;115.906;2022-10-26T00:14:05;21.40;99.90
5940;DHT22;2995;-31.998;115.906;2022-10-26T00:16:36;21.40;99.90
5940;DHT22;2995;-31.998;115.906;2022-10-26T00:19:08;22.30;99.90
5940;DHT22;2995;-31.998;115.906;2022-10-26T00:21:39;21.30;99.90
5940;DHT22;2995;-31.998;115.906;2022-10-26T00:24:11;21.00;99.90
5940;DHT22;2995;-31.998;115.906;2022-10-26T00:26:42;20.60;99.90
5940;DHT22;2995;-31.998;115.906;2022-10-26T00:29:15;20.70;99.90
5940;DHT22;2995;-31.998;115.906;2022-10-26T00:31:46;20.50;99.90
5940;DHT22;2995;-31.998;115.906;2022-10-26T00:34:18;20.40;99.90
5940;DHT22;2995;-31.998;115.906;2022-10-26T00:36:49;21.00;99.90
5940;DHT22;2995;-31.998;115.906;2022-10-26T00:39:20;21.10;99.90
5940;DHT22;2995;-31.998;115.906;2022-10-26T00:41:51;21.00;99.90
5940;DHT22;2995;-31.998;115.906;2022-10-26T00:44:58;21.00;99.90
5940;DHT22;2995;-31.998;115.906;2022-10-26T00:47:39;22.10;99.90
5940;DHT22;2995;-31.998;115.906;2022-10-26T00:50:14;22.40;99.90
5940;DHT22;2995;-31.998;115.906;2022-10-26T00:52:48;22.20;99.90
5940;DHT22;2995;-31.998;115.906;2022-10-26T00:55:22;21.70;99.90
5940;DHT22;2995;-31.998;115.906;2022-10-26T00:57:54;21.80;99.90
5940;DHT22;2995;-31.998;115.906;2022-10-26T01:00:28;21.90;99.90
5940;DHT22;2995;-31.998;115.906;2022-10-26T01:03:03;21.90;99.90
5940;DHT22;2995;-31.998;115.906;2022-10-26T01:05:36;22.40;99.90
5940;DHT22;2995;-31.998;115.906;2022-10-26T01:08:08;22.80;99.90
5940;DHT22;2995;-31.998;115.906;2022-10-26T01:10:40;23.00;99.90
5940;DHT22;2995;-31.998;115.906;2022-10-26T01:13:13;22.30;99.90
5940;DHT22;2995;-31.998;115.906;2022-10-26T01:15:50;22.60;99.90
5940;DHT22;2995;-31.998;115.906;2022-10-26T01:18:32;22.90;99.90
5940;DHT22;2995;-31.998;115.906;2022-10-26T01:27:06;22.40;99.90
5940;DHT22;2995;-31.998;115.906;2022-10-26T01:32:42;22.40;99.90
5940;DHT22;2995;-31.998;115.906;2022-10-26T01:35:18;22.40;99.90
5940;DHT22;2995;-31.998;115.906;2022-10-26T01:37:55;22.40;99.90
5940;DHT22;2995;-31.998;115.906;2022-10-26T01:40:31;22.00;99.90
5940;DHT22;2995;-31.998;115.906;2022-10-26T01:43:06;21.70;99.90
5940;DHT22;2995;-31.998;115.906;2022-10-26T01:45:40;21.90;99.90
5940;DHT22;2995;-31.998;115.906;2022-10-26T01:48:16;21.60;99.90
5940;DHT22;2995;-31.998;115.906;2022-10-26T01:50:51;21.70;99.90
5940;DHT22;2995;-31.998;115.906;2022-10-26T01:53:24;21.50;99.90
5940;DHT22;2995;-31.998;115.906;2022-10-26T01:55:56;21.60;99.90
5940;DHT22;2995;-31.998;115.906;2022-10-26T01:58:57;21.90;99.90
5940;DHT22;2995;-31.998;115.906;2022-10-26T02:01:44;21.30;99.90
5940;DHT22;2995;-31.998;115.906;2022-10-26T02:04:31;21.30;99.90
5940;DHT22;2995;-31.998;115.906;2022-10-26T02:07:05;21.40;99.90
5940;DHT22;2995;-31.998;115.906;2022-10-26T02:09:54;21.60;99.90
5940;DHT22;2995;-31.998;115.906;2022-10-26T02:12:32;21.90;99.90
5940;DHT22;2995;-31.998;115.906;2022-10-26T02:15:10;21.40;99.90
5940;DHT22;2995;-31.998;115.906;2022-10-26T02:17:49;21.60;99.90
5940;DHT22;2995;-31.998;115.906;2022-10-26T02:20:26;21.90;99.90
5940;DHT22;2995;-31.998;115.906;2022-10-26T02:22:59;21.80;99.90
5940;DHT22;2995;-31.998;115.906;2022-10-26T02:25:32;22.00;99.90
5940;DHT22;2995;-31.998;115.906;2022-10-26T02:28:06;21.90;99.90
5940;DHT22;2995;-31.998;115.906;2022-10-26T02:30:39;21.50;99.90
5940;DHT22;2995;-31.998;115.906;2022-10-26T02:33:12;21.70;99.90
5940;DHT22;2995;-31.998;115.906;2022-10-26T02:35:49;22.00;99.90
5940;DHT22;2995;-31.998;115.906;2022-10-26T02:38:21;21.90;99.90
5940;DHT22;2995;-31.998;115.906;2022-10-26T02:40:54;21.80;99.90
5940;DHT22;2995;-31.998;115.906;2022-10-26T02:43:27;22.00;99.90
5940;DHT22;2995;-31.998;115.906;2022-10-26T02:46:04;22.30;99.90
5940;DHT22;2995;-31.998;115.906;2022-10-26T02:48:37;22.50;99.90
5940;DHT22;2995;-31.998;115.906;2022-10-26T02:51:13;22.40;99.90
5940;DHT22;2995;-31.998;115.906;2022-10-26T02:53:50;22.60;99.90
5940;DHT22;2995;-31.998;115.906;2022-10-26T02:56:24;22.60;99.90
5940;DHT22;2995;-31.998;115.906;2022-10-26T02:59:01;22.20;99.90
5940;DHT22;2995;-31.998;115.906;2022-10-26T03:01:34;22.40;99.90
5940;DHT22;2995;-31.998;115.906;2022-10-26T03:04:06;22.70;99.90
5940;DHT22;2995;-31.998;115.906;2022-10-26T03:06:39;23.00;99.90
5940;DHT22;2995;-31.998;115.906;2022-10-26T03:09:10;22.80;99.90
5940;DHT22;2995;-31.998;115.906;2022-10-26T03:11:42;22.90;99.90
5940;DHT22;2995;-31.998;115.906;2022-10-26T03:14:13;22.90;99.90
5940;DHT22;2995;-31.998;115.906;2022-10-26T03:16:44;22.70;99.90
5940;DHT22;2995;-31.998;115.906;2022-10-26T03:19:15;22.60;99.90
5940;DHT22;2995;-31.998;115.906;2022-10-26T03:21:48;22.60;99.90
5940;DHT22;2995;-31.998;115.906;2022-10-26T03:24:19;22.80;99.90
5940;DHT22;2995;-31.998;115.906;2022-10-26T03:26:51;23.10;99.90
5940;DHT22;2995;-31.998;115.906;2022-10-26T03:29:22;23.50;99.90
5940;DHT22;2995;-31.998;115.906;2022-10-26T03:31:53;23.50;99.90
5940;DHT22;2995;-31.998;115.906;2022-10-26T03:34:24;23.40;99.90
5940;DHT22;2995;-31.998;115.906;2022-10-26T03:36:57;23.20;99.90
5940;DHT22;2995;-31.998;115.906;2022-10-26T03:39:29;23.30;99.90
5940;DHT22;2995;-31.998;115.906;2022-10-26T03:42:00;23.30;99.90
5940;DHT22;2995;-31.998;115.906;2022-10-26T03:44:31;23.00;99.90
5940;DHT22;2995;-31.998;115.906;2022-10-26T03:47:02;22.80;99.90
5940;DHT22;2995;-31.998;115.906;2022-10-26T03:49:33;22.80;99.90
5940;DHT22;2995;-31.998;115.906;2022-10-26T03:52:07;23.10;99.90
5940;DHT22;2995;-31.998;115.906;2022-10-26T03:54:38;23.30;99.90
5940;DHT22;2995;-31.998;115.906;2022-10-26T03:57:09;23.00;99.90
5940;DHT22;2995;-31.998;115.906;2022-10-26T03:59:41;23.00;99.90
5940;DHT22;2995;-31.998;115.906;2022-10-26T04:02:12;23.20;99.90
5940;DHT22;2995;-31.998;115.906;2022-10-26T04:04:43;22.90;99.90
5940;DHT22;2995;-31.998;115.906;2022-10-26T04:07:16;23.20;99.90
5940;DHT22;2995;-31.998;115.906;2022-10-26T04:09:47;23.10;99.90
5940;DHT22;2995;-31.998;115.906;2022-10-26T04:12:18;22.90;99.90
5940;DHT22;2995;-31.998;115.906;2022-10-26T04:14:50;22.50;99.90
5940;DHT22;2995;-31.998;115.906;2022-10-26T04:17:21;22.30;99.90
5940;DHT22;2995;-31.998;115.906;2022-10-26T04:19:52;22.20;99.90
5940;DHT22;2995;-31.998;115.906;2022-10-26T04:22:25;22.40;99.90
5940;DHT22;2995;-31.998;115.906;2022-10-26T04:24:56;22.30;99.90
5940;DHT22;2995;-31.998;115.906;2022-10-26T04:27:28;22.20;99.90
5940;DHT22;2995;-31.998;115.906;2022-10-26T04:29:59;22.00;99.90
5940;DHT22;2995;-31.998;115.906;2022-10-26T04:32:30;22.00;99.90
5940;DHT22;2995;-31.998;115.906;2022-10-26T04:35:01;22.10;99.90
5940;DHT22;2995;-31.998;115.906;2022-10-26T04:37:34;22.30;99.90
5940;DHT22;2995;-31.998;115.906;2022-10-26T04:40:06;22.60;99.90
5940;DHT22;2995;-31.998;115.906;2022-10-26T04:42:45;22.70;99.90
5940;DHT22;2995;-31.998;115.906;2022-10-26T04:45:16;22.70;99.90
5940;DHT22;2995;-31.998;115.906;2022-10-26T04:47:48;22.60;99.90
5940;DHT22;2995;-31.998;115.906;2022-10-26T04:50:28;22.30;99.90
5940;DHT22;2995;-31.998;115.906;2022-10-26T04:53:02;22.10;99.90
5940;DHT22;2995;-31.998;115.906;2022-10-26T04:55:33;21.90;99.90
5940;DHT22;2995;-31.998;115.906;2022-10-26T04:58:05;22.00;99.90
5940;DHT22;2995;-31.998;115.906;2022-10-26T05:00:36;21.90;99.90
5940;DHT22;2995;-31.998;115.906;2022-10-26T05:03:08;21.80;99.90
5940;DHT22;2995;-31.998;115.906;2022-10-26T05:05:39;21.80;99.90
5940;DHT22;2995;-31.998;115.906;2022-10-26T05:08:13;21.90;99.90
5940;DHT22;2995;-31.998;115.906;2022-10-26T05:10:48;22.00;99.90
5940;DHT22;2995;-31.998;115.906;2022-10-26T05:13:19;21.80;99.90
5940;DHT22;2995;-31.998;115.906;2022-10-26T05:15:53;21.50;99.90
5940;DHT22;2995;-31.998;115.906;2022-10-26T05:18:25;21.30;99.90
5940;DHT22;2995;-31.998;115.906;2022-10-26T05:20:56;21.50;99.90
5940;DHT22;2995;-31.998;115.906;2022-10-26T05:23:29;21.60;99.90
5940;DHT22;2995;-31.998;115.906;2022-10-26T05:26:00;21.70;99.90
5940;DHT22;2995;-31.998;115.906;2022-10-26T05:28:31;21.80;99.90
5940;DHT22;2995;-31.998;115.906;2022-10-26T05:31:03;21.80;99.90
5940;DHT22;2995;-31.998;115.906;2022-10-26T05:33:34;21.80;99.90
5940;DHT22;2995;-31.998;115.906;2022-10-26T05:36:05;21.70;99.90
5940;DHT22;2995;-31.998;115.906;2022-10-26T05:38:39;21.90;99.90
5940;DHT22;2995;-31.998;115.906;2022-10-26T05:41:10;22.20;99.90
5940;DHT22;2995;-31.998;115.906;2022-10-26T05:43:41;22.40;99.90
5940;DHT22;2995;-31.998;115.906;2022-10-26T05:46:12;22.60;99.90
5940;DHT22;2995;-31.998;115.906;2022-10-26T05:48:44;22.60;99.90
5940;DHT22;2995;-31.998;115.906;2022-10-26T05:51:15;22.70;99.90
5940;DHT22;2995;-31.998;115.906;2022-10-26T05:53:50;22.70;99.90
5940;DHT22;2995;-31.998;115.906;2022-10-26T05:56:34;22.40;99.90
5940;DHT22;2995;-31.998;115.906;2022-10-26T05:59:10;22.30;99.90
5940;DHT22;2995;-31.998;115.906;2022-10-26T06:01:54;22.20;99.90
5940;DHT22;2995;-31.998;115.906;2022-10-26T06:04:37;22.20;99.90
5940;DHT22;2995;-31.998;115.906;2022-10-26T06:07:11;22.30;99.90
5940;DHT22;2995;-31.998;115.906;2022-10-26T06:09:46;22.00;99.90
5940;DHT22;2995;-31.998;115.906;2022-10-26T06:12:18;21.70;99.90
5940;DHT22;2995;-31.998;115.906;2022-10-26T06:14:49;22.00;99.90
5940;DHT22;2995;-31.998;115.906;2022-10-26T06:17:30;22.10;99.90
5940;DHT22;2995;-31.998;115.906;2022-10-26T06:23:11;22.30;99.90
5940;DHT22;2995;-31.998;115.906;2022-10-26T06:25:56;22.40;99.90
5940;DHT22;2995;-31.998;115.906;2022-10-26T06:28:35;22.30;99.90
5940;DHT22;2995;-31.998;115.906;2022-10-26T06:31:13;22.40;99.90
5940;DHT22;2995;-31.998;115.906;2022-10-26T06:33:44;22.40;99.90
5940;DHT22;2995;-31.998;115.906;2022-10-26T06:36:22;22.40;99.90
5940;DHT22;2995;-31.998;115.906;2022-10-26T06:38:56;22.30;99.90
5940;DHT22;2995;-31.998;115.906;2022-10-26T06:41:31;22.20;99.90
5940;DHT22;2995;-31.998;115.906;2022-10-26T06:44:04;22.10;99.90
5940;DHT22;2995;-31.998;115.906;2022-10-26T06:46:40;22.20;99.90
5940;DHT22;2995;-31.998;115.906;2022-10-26T06:49:20;22.30;99.90
5940;DHT22;2995;-31.998;115.906;2022-10-26T06:51:55;22.10;99.90
5940;DHT22;2995;-31.998;115.906;2022-10-26T06:54:37;21.90;99.90
5940;DHT22;2995;-31.998;115.906;2022-10-26T06:57:16;22.00;99.90
5940;DHT22;2995;-31.998;115.906;2022-10-26T06:59:49;22.00;99.90
5940;DHT22;2995;-31.998;115.906;2022-10-26T07:02:21;22.10;99.90
5940;DHT22;2995;-31.998;115.906;2022-10-26T07:04:53;22.00;99.90
5940;DHT22;2995;-31.998;115.906;2022-10-26T07:07:25;21.90;99.90
5940;DHT22;2995;-31.998;115.906;2022-10-26T07:09:57;21.90;99.90
5940;DHT22;2995;-31.998;115.906;2022-10-26T07:12:30;21.90;99.90
5940;DHT22;2995;-31.998;115.906;2022-10-26T07:15:02;21.70;99.90
5940;DHT22;2995;-31.998;115.906;2022-10-26T07:17:43;21.60;99.90
5940;DHT22;2995;-31.998;115.906;2022-10-26T07:20:15;21.70;99.90
5940;DHT22;2995;-31.998;115.906;2022-10-26T07:22:52;21.60;99.90
5940;DHT22;2995;-31.998;115.906;2022-10-26T07:25:24;21.60;99.90
5940;DHT22;2995;-31.998;115.906;2022-10-26T07:28:00;21.70;99.90
5940;DHT22;2995;-31.998;115.906;2022-10-26T07:30:31;21.60;99.90
5940;DHT22;2995;-31.998;115.906;2022-10-26T07:33:04;21.60;99.90
5940;DHT22;2995;-31.998;115.906;2022-10-26T07:35:36;21.30;99.90
5940;DHT22;2995;-31.998;115.906;2022-10-26T07:38:07;21.30;99.90
5940;DHT22;2995;-31.998;115.906;2022-10-26T07:40:38;21.30;99.90
5940;DHT22;2995;-31.998;115.906;2022-10-26T07:43:12;21.30;99.90
5940;DHT22;2995;-31.998;115.906;2022-10-26T07:45:43;21.20;99.90
5940;DHT22;2995;-31.998;115.906;2022-10-26T07:48:14;21.20;99.90
5940;DHT22;2995;-31.998;115.906;2022-10-26T07:50:45;21.30;99.90
5940;DHT22;2995;-31.998;115.906;2022-10-26T07:53:16;21.20;99.90
5940;DHT22;2995;-31.998;115.906;2022-10-26T07:55:53;21.10;99.90
5940;DHT22;2995;-31.998;115.906;2022-10-26T07:58:27;21.10;99.90
5940;DHT22;2995;-31.998;115.906;2022-10-26T08:01:03;21.10;99.90
5940;DHT22;2995;-31.998;115.906;2022-10-26T08:03:35;21.10;99.90
5940;DHT22;2995;-31.998;115.906;2022-10-26T08:06:06;20.90;99.90
5940;DHT22;2995;-31.998;115.906;2022-10-26T08:08:37;20.80;99.90
5940;DHT22;2995;-31.998;115.906;2022-10-26T08:11:08;20.90;99.90
5940;DHT22;2995;-31.998;115.906;2022-10-26T08:13:42;21.00;99.90
5940;DHT22;2995;-31.998;115.906;2022-10-26T08:16:13;20.90;99.90
5940;DHT22;2995;-31.998;115.906;2022-10-26T08:18:46;20.80;99.90
5940;DHT22;2995;-31.998;115.906;2022-10-26T08:21:18;20.70;99.90
5940;DHT22;2995;-31.998;115.906;2022-10-26T08:23:49;20.70;99.90
5940;DHT22;2995;-31.998;115.906;2022-10-26T08:26:21;20.60;99.90
5940;DHT22;2995;-31.998;115.906;2022-10-26T08:28:54;20.60;99.90
5940;DHT22;2995;-31.998;115.906;2022-10-26T08:31:25;20.50;99.90
5940;DHT22;2995;-31.998;115.906;2022-10-26T08:33:56;20.50;99.90
5940;DHT22;2995;-31.998;115.906;2022-10-26T08:36:29;20.50;99.90
5940;DHT22;2995;-31.998;115.906;2022-10-26T08:39:00;20.60;99.90
5940;DHT22;2995;-31.998;115.906;2022-10-26T08:41:36;20.60;99.90
5940;DHT22;2995;-31.998;115.906;2022-10-26T08:44:19;20.50;99.90
5940;DHT22;2995;-31.998;115.906;2022-10-26T08:46:53;20.50;99.90
5940;DHT22;2995;-31.998;115.906;2022-10-26T08:49:28;20.50;99.90
5940;DHT22;2995;-31.998;115.906;2022-10-26T08:52:02;20.50;99.90
5940;DHT22;2995;-31.998;115.906;2022-10-26T08:54:37;20.40;99.90
5940;DHT22;2995;-31.998;115.906;2022-10-26T08:57:18;20.40;99.90
5940;DHT22;2995;-31.998;115.906;2022-10-26T08:59:56;20.30;99.90
5940;DHT22;2995;-31.998;115.906;2022-10-26T09:02:29;20.20;99.90
5940;DHT22;2995;-31.998;115.906;2022-10-26T09:05:00;20.20;99.90
5940;DHT22;2995;-31.998;115.906;2022-10-26T09:07:47;20.20;99.90
5940;DHT22;2995;-31.998;115.906;2022-10-26T09:10:34;20.00;99.90
5940;DHT22;2995;-31.998;115.906;2022-10-26T09:13:16;19.90;99.90
5940;DHT22;2995;-31.998;115.906;2022-10-26T09:16:01;19.90;99.90
5940;DHT22;2995;-31.998;115.906;2022-10-26T09:18:42;19.90;99.90
5940;DHT22;2995;-31.998;115.906;2022-10-26T09:21:27;19.70;99.90
5940;DHT22;2995;-31.998;115.906;2022-10-26T09:24:06;19.70;99.90
5940;DHT22;2995;-31.998;115.906;2022-10-26T09:26:41;19.60;99.90
5940;DHT22;2995;-31.998;115.906;2022-10-26T09:29:14;19.50;99.90
5940;DHT22;2995;-31.998;115.906;2022-10-26T09:31:49;19.50;99.90
5940;DHT22;2995;-31.998;115.906;2022-10-26T09:34:26;19.40;99.90
5940;DHT22;2995;-31.998;115.906;2022-10-26T09:36:58;19.30;99.90
5940;DHT22;2995;-31.998;115.906;2022-10-26T09:39:38;19.30;99.90
5940;DHT22;2995;-31.998;115.906;2022-10-26T09:42:16;19.20;99.90
5940;DHT22;2995;-31.998;115.906;2022-10-26T09:44:51;19.20;99.90
5940;DHT22;2995;-31.998;115.906;2022-10-26T09:47:32;19.10;99.90
5940;DHT22;2995;-31.998;115.906;2022-10-26T09:50:14;19.10;99.90
5940;DHT22;2995;-31.998;115.906;2022-10-26T09:52:47;19.00;99.90
5940;DHT22;2995;-31.998;115.906;2022-10-26T09:55:18;18.80;99.90
5940;DHT22;2995;-31.998;115.906;2022-10-26T09:57:52;18.80;99.90
5940;DHT22;2995;-31.998;115.906;2022-10-26T10:00:27;18.70;99.90
5940;DHT22;2995;-31.998;115.906;2022-10-26T10:03:00;18.60;99.90
5940;DHT22;2995;-31.998;115.906;2022-10-26T10:05:33;18.60;99.90
5940;DHT22;2995;-31.998;115.906;2022-10-26T10:08:15;18.50;99.90
5940;DHT22;2995;-31.998;115.906;2022-10-26T10:11:00;18.50;99.90
5940;DHT22;2995;-31.998;115.906;2022-10-26T10:13:33;18.50;99.90
5940;DHT22;2995;-31.998;115.906;2022-10-26T10:16:13;18.30;99.90
5940;DHT22;2995;-31.998;115.906;2022-10-26T10:18:56;18.30;99.90
5940;DHT22;2995;-31.998;115.906;2022-10-26T10:21:35;18.30;99.90
5940;DHT22;2995;-31.998;115.906;2022-10-26T10:24:26;18.20;99.90
5940;DHT22;2995;-31.998;115.906;2022-10-26T10:27:03;18.00;99.90
5940;DHT22;2995;-31.998;115.906;2022-10-26T10:29:40;18.10;99.90
5940;DHT22;2995;-31.998;115.906;2022-10-26T10:32:15;17.80;99.90
5940;DHT22;2995;-31.998;115.906;2022-10-26T10:34:50;17.90;99.90
5940;DHT22;2995;-31.998;115.906;2022-10-26T10:37:25;17.90;99.90
5940;DHT22;2995;-31.998;115.906;2022-10-26T10:39:58;17.70;99.90
5940;DHT22;2995;-31.998;115.906;2022-10-26T10:42:32;17.60;99.90
5940;DHT22;2995;-31.998;115.906;2022-10-26T10:45:04;17.60;99.90
5940;DHT22;2995;-31.998;115.906;2022-10-26T10:47:37;17.60;99.90
5940;DHT22;2995;-31.998;115.906;2022-10-26T10:50:17;17.30;99.90
5940;DHT22;2995;-31.998;115.906;2022-10-26T10:52:49;17.30;99.90
5940;DHT22;2995;-31.998;115.906;2022-10-26T10:55:22;17.40;99.90
5940;DHT22;2995;-31.998;115.906;2022-10-26T10:58:04;17.20;99.90
5940;DHT22;2995;-31.998;115.906;2022-10-26T11:00:37;17.30;99.90
5940;DHT22;2995;-31.998;115.906;2022-10-26T11:03:37;17.20;99.90
5940;DHT22;2995;-31.998;115.906;2022-10-26T11:06:16;17.10;99.90
5940;DHT22;2995;-31.998;115.906;2022-10-26T11:08:51;17.10;99.90
5940;DHT22;2995;-31.998;115.906;2022-10-26T11:11:30;17.00;99.90
5940;DHT22;2995;-31.998;115.906;2022-10-26T11:14:05;17.00;99.90
5940;DHT22;2995;-31.998;115.906;2022-10-26T11:16:42;16.90;99.90
5940;DHT22;2995;-31.998;115.906;2022-10-26T11:19:19;16.90;99.90
5940;DHT22;2995;-31.998;115.906;2022-10-26T11:21:54;16.90;99.90
5940;DHT22;2995;-31.998;115.906;2022-10-26T11:24:28;16.90;99.90
5940;DHT22;2995;-31.998;115.906;2022-10-26T11:27:07;16.80;99.90
5940;DHT22;2995;-31.998;115.906;2022-10-26T11:29:46;16.70;99.90
5940;DHT22;2995;-31.998;115.906;2022-10-26T11:32:21;16.60;99.90
5940;DHT22;2995;-31.998;115.906;2022-10-26T11:34:57;16.70;99.90
5940;DHT22;2995;-31.998;115.906;2022-10-26T11:37:35;16.70;99.90
5940;DHT22;2995;-31.998;115.906;2022-10-26T11:40:20;16.70;99.90
5940;DHT22;2995;-31.998;115.906;2022-10-26T11:43:02;16.70;99.90
5940;DHT22;2995;-31.998;115.906;2022-10-26T11:45:36;16.60;99.90
5940;DHT22;2995;-31.998;115.906;2022-10-26T11:48:14;16.50;99.90
5940;DHT22;2995;-31.998;115.906;2022-10-26T11:50:49;16.50;99.90
5940;DHT22;2995;-31.998;115.906;2022-10-26T11:53:26;16.40;99.90
5940;DHT22;2995;-31.998;115.906;2022-10-26T11:55:58;16.40;99.90
5940;DHT22;2995;-31.998;115.906;2022-10-26T11:58:30;16.40;99.90
5940;DHT22;2995;-31.998;115.906;2022-10-26T12:01:03;16.40;99.90
5940;DHT22;2995;-31.998;115.906;2022-10-26T12:03:41;16.30;99.90
5940;DHT22;2995;-31.998;115.906;2022-10-26T12:06:14;16.30;99.90
5940;DHT22;2995;-31.998;115.906;2022-10-26T12:08:53;16.30;99.90
5940;DHT22;2995;-31.998;115.906;2022-10-26T12:11:37;16.20;99.90
5940;DHT22;2995;-31.998;115.906;2022-10-26T12:14:17;16.20;99.90
5940;DHT22;2995;-31.998;115.906;2022-10-26T12:16:56;16.10;99.90
5940;DHT22;2995;-31.998;115.906;2022-10-26T12:19:30;16.10;99.90
5940;DHT22;2995;-31.998;115.906;2022-10-26T12:22:03;16.20;99.90
5940;DHT22;2995;-31.998;115.906;2022-10-26T12:24:43;16.20;99.90
5940;DHT22;2995;-31.998;115.906;2022-10-26T12:27:31;16.20;99.90
5940;DHT22;2995;-31.998;115.906;2022-10-26T12:30:26;16.20;99.90
5940;DHT22;2995;-31.998;115.906;2022-10-26T12:32:58;16.20;99.90
5940;DHT22;2995;-31.998;115.906;2022-10-26T12:35:38;16.10;99.90
5940;DHT22;2995;-31.998;115.906;2022-10-26T12:41:38;16.10;99.90
5940;DHT22;2995;-31.998;115.906;2022-10-26T12:44:33;16.00;99.90
5940;DHT22;2995;-31.998;115.906;2022-10-26T12:47:05;15.90;99.90
5940;DHT22;2995;-31.998;115.906;2022-10-26T12:49:59;15.90;99.90
5940;DHT22;2995;-31.998;115.906;2022-10-26T12:52:42;16.00;99.90
5940;DHT22;2995;-31.998;115.906;2022-10-26T12:55:48;15.90;99.90
5940;DHT22;2995;-31.998;115.906;2022-10-26T12:58:54;15.80;99.90
5940;DHT22;2995;-31.998;115.906;2022-10-26T13:05:12;15.80;99.90
5940;DHT22;2995;-31.998;115.906;2022-10-26T13:08:01;15.80;99.90
5940;DHT22;2995;-31.998;115.906;2022-10-26T13:10:33;15.70;99.90
5940;DHT22;2995;-31.998;115.906;2022-10-26T13:13:06;15.50;99.90
5940;DHT22;2995;-31.998;115.906;2022-10-26T13:15:50;15.50;99.90
5940;DHT22;2995;-31.998;115.906;2022-10-26T13:18:22;15.50;99.90
5940;DHT22;2995;-31.998;115.906;2022-10-26T13:21:01;15.40;99.90
5940;DHT22;2995;-31.998;115.906;2022-10-26T13:23:37;15.30;99.90
5940;DHT22;2995;-31.998;115.906;2022-10-26T13:26:10;15.40;99.90
5940;DHT22;2995;-31.998;115.906;2022-10-26T13:28:48;15.40;99.90
5940;DHT22;2995;-31.998;115.906;2022-10-26T13:31:56;15.40;99.90
5940;DHT22;2995;-31.998;115.906;2022-10-26T13:34:29;15.40;99.90
5940;DHT22;2995;-31.998;115.906;2022-10-26T13:37:17;15.30;99.90
5940;DHT22;2995;-31.998;115.906;2022-10-26T13:39:50;15.20;99.90
5940;DHT22;2995;-31.998;115.906;2022-10-26T13:42:25;15.20;99.90
5940;DHT22;2995;-31.998;115.906;2022-10-26T13:45:00;15.20;99.90
5940;DHT22;2995;-31.998;115.906;2022-10-26T13:47:42;15.30;99.90
5940;DHT22;2995;-31.998;115.906;2022-10-26T13:50:17;15.30;99.90
5940;DHT22;2995;-31.998;115.906;2022-10-26T13:52:50;15.30;99.90
5940;DHT22;2995;-31.998;115.906;2022-10-26T13:55:26;15.20;99.90
5940;DHT22;2995;-31.998;115.906;2022-10-26T13:58:10;15.20;99.90
5940;DHT22;2995;-31.998;115.906;2022-10-26T14:01:00;15.20;99.90
5940;DHT22;2995;-31.998;115.906;2022-10-26T14:03:33;15.10;99.90
5940;DHT22;2995;-31.998;115.906;2022-10-26T14:06:05;15.10;99.90
5940;DHT22;2995;-31.998;115.906;2022-10-26T14:08:41;15.20;99.90
5940;DHT22;2995;-31.998;115.906;2022-10-26T14:11:16;15.10;99.90
5940;DHT22;2995;-31.998;115.906;2022-10-26T14:13:49;15.10;99.90
5940;DHT22;2995;-31.998;115.906;2022-10-26T14:16:20;14.90;99.90
5940;DHT22;2995;-31.998;115.906;2022-10-26T14:18:57;14.90;99.90
5940;DHT22;2995;-31.998;115.906;2022-10-26T14:21:29;14.90;99.90
5940;DHT22;2995;-31.998;115.906;2022-10-26T14:24:00;14.80;99.90
5940;DHT22;2995;-31.998;115.906;2022-10-26T14:26:40;14.70;99.90
5940;DHT22;2995;-31.998;115.906;2022-10-26T14:29:17;14.60;99.90
5940;DHT22;2995;-31.998;115.906;2022-10-26T14:31:49;14.60;99.90
5940;DHT22;2995;-31.998;115.906;2022-10-26T14:34:24;14.70;99.90
5940;DHT22;2995;-31.998;115.906;2022-10-26T14:36:57;14.70;99.90
5940;DHT22;2995;-31.998;115.906;2022-10-26T14:39:32;14.70;99.90
5940;DHT22;2995;-31.998;115.906;2022-10-26T14:42:11;14.60;99.90
5940;DHT22;2995;-31.998;115.906;2022-10-26T14:44:45;14.50;99.90
5940;DHT22;2995;-31.998;115.906;2022-10-26T14:47:21;14.50;99.90
5940;DHT22;2995;-31.998;115.906;2022-10-26T14:49:56;14.50;99.90
5940;DHT22;2995;-31.998;115.906;2022-10-26T14:52:29;14.50;99.90
5940;DHT22;2995;-31.998;115.906;2022-10-26T14:55:03;14.50;99.90
5940;DHT22;2995;-31.998;115.906;2022-10-26T14:57:36;14.40;99.90
5940;DHT22;2995;-31.998;115.906;2022-10-26T15:00:14;14.50;99.90
5940;DHT22;2995;-31.998;115.906;2022-10-26T15:02:47;14.50;99.90
5940;DHT22;2995;-31.998;115.906;2022-10-26T15:05:25;14.30;99.90
5940;DHT22;2995;-31.998;115.906;2022-10-26T15:07:57;14.30;99.90
5940;DHT22;2995;-31.998;115.906;2022-10-26T15:10:46;14.30;99.90
5940;DHT22;2995;-31.998;115.906;2022-10-26T15:13:26;14.10;99.90
5940;DHT22;2995;-31.998;115.906;2022-10-26T15:16:08;14.00;99.90
5940;DHT22;2995;-31.998;115.906;2022-10-26T15:18:40;14.10;99.90
5940;DHT22;2995;-31.998;115.906;2022-10-26T15:21:22;14.10;99.90
5940;DHT22;2995;-31.998;115.906;2022-10-26T15:23:55;14.20;99.90
5940;DHT22;2995;-31.998;115.906;2022-10-26T15:26:26;14.20;99.90
5940;DHT22;2995;-31.998;115.906;2022-10-26T15:28:58;14.20;99.90
5940;DHT22;2995;-31.998;115.906;2022-10-26T15:31:31;14.30;99.90
5940;DHT22;2995;-31.998;115.906;2022-10-26T15:34:13;14.30;99.90
5940;DHT22;2995;-31.998;115.906;2022-10-26T15:36:46;14.30;99.90
5940;DHT22;2995;-31.998;115.906;2022-10-26T15:39:17;14.30;99.90
5940;DHT22;2995;-31.998;115.906;2022-10-26T15:41:49;14.20;99.90
5940;DHT22;2995;-31.998;115.906;2022-10-26T15:44:22;14.30;99.90
5940;DHT22;2995;-31.998;115.906;2022-10-26T15:47:01;14.30;99.90
5940;DHT22;2995;-31.998;115.906;2022-10-26T15:49:32;14.40;99.90
5940;DHT22;2995;-31.998;115.906;2022-10-26T15:52:09;14.30;99.90
5940;DHT22;2995;-31.998;115.906;2022-10-26T15:54:40;14.30;99.90
5940;DHT22;2995;-31.998;115.906;2022-10-26T15:57:13;14.30;99.90
5940;DHT22;2995;-31.998;115.906;2022-10-26T15:59:44;14.30;99.90
5940;DHT22;2995;-31.998;115.906;2022-10-26T16:02:15;14.10;99.90
5940;DHT22;2995;-31.998;115.906;2022-10-26T16:04:47;14.20;99.90
5940;DHT22;2995;-31.998;115.906;2022-10-26T16:07:20;14.20;99.90
5940;DHT22;2995;-31.998;115.906;2022-10-26T16:09:54;14.10;99.90
5940;DHT22;2995;-31.998;115.906;2022-10-26T16:12:26;14.00;99.90
5940;DHT22;2995;-31.998;115.906;2022-10-26T16:14:57;14.10;99.90
5940;DHT22;2995;-31.998;115.906;2022-10-26T16:17:29;14.10;99.90
5940;DHT22;2995;-31.998;115.906;2022-10-26T16:20:00;14.00;99.90
5940;DHT22;2995;-31.998;115.906;2022-10-26T16:22:33;14.10;99.90
5940;DHT22;2995;-31.998;115.906;2022-10-26T16:25:05;14.10;99.90